Time;durP1;ratioP1;P1;durP2;ratioP2;P2;SDS_P1;SDS_P2;PMS_P1;PMS_P2;Temp;Humidity;BMP_temperature;BMP_pressure;BME280_temperature;BME280_humidity;BME280_pressure;Samples;Min_cycle;Max_cycle;Signal;HPM_P1;HPM_P2
2022/11/12 00:00:20;;;;;;;;;29.00;26.33;;;;;10.17;88.84;100809.34;4968128;28;47442;-69
2022/11/12 00:02:45;;;;;;;;;30.00;26.33;;;;;10.12;88.88;100806.75;4951445;28;45521;-69
2022/11/12 00:05:10;;;;;;;;;26.33;23.67;;;;;10.07;89.04;100814.69;4954103;28;45378;-69
2022/11/12 00:07:36;;;;;;;;;30.33;24.67;;;;;10.05;89.15;100813.84;4951075;28;45410;-69
2022/11/12 00:10:02;;;;;;;;;29.00;27.00;;;;;10.02;88.94;100811.25;4967900;28;47332;-69
2022/11/12 00:12:27;;;;;;;;;27.33;24.33;;;;;9.99;89.09;100805.16;4951911;28;45386;-69
2022/11/12 00:14:53;;;;;;;;;29.00;27.00;;;;;9.96;89.31;100810.44;4953031;28;45751;-69
2022/11/12 00:17:18;;;;;;;;;23.33;23.33;;;;;9.92;89.33;100814.88;4945693;28;45598;-69
2022/11/12 00:19:43;;;;;;;;;26.00;21.67;;;;;9.89;89.41;100812.25;4950161;28;46147;-69
2022/11/12 00:22:09;;;;;;;;;28.67;26.00;;;;;9.86;89.58;100819.34;4959921;28;45386;-69
2022/11/12 00:24:34;;;;;;;;;23.67;23.00;;;;;9.83;89.70;100817.59;4962887;28;45351;-69
2022/11/12 00:27:00;;;;;;;;;33.00;26.33;;;;;9.80;89.75;100812.38;4952071;28;45450;-69
2022/11/12 00:29:25;;;;;;;;;25.33;23.33;;;;;9.78;89.79;100817.66;4961475;28;45470;-69
2022/11/12 00:31:50;;;;;;;;;27.33;26.00;;;;;9.76;89.80;100813.28;4947509;28;45444;-69
2022/11/12 00:34:16;;;;;;;;;27.00;26.67;;;;;9.73;89.85;100819.44;4952021;28;45430;-69
2022/11/12 00:36:41;;;;;;;;;26.67;25.67;;;;;9.70;89.83;100824.75;4952918;28;45647;-68
2022/11/12 00:39:06;;;;;;;;;26.00;23.33;;;;;9.67;89.93;100808.97;4954655;28;45986;-69
2022/11/12 00:41:32;;;;;;;;;34.00;28.33;;;;;9.68;90.05;100815.13;4956500;28;45529;-69
2022/11/12 00:43:57;;;;;;;;;27.33;26.00;;;;;9.65;90.14;100816.03;4956990;28;45409;-69
2022/11/12 00:46:22;;;;;;;;;25.33;24.00;;;;;9.63;90.40;100823.06;4956673;28;45915;-69
2022/11/12 00:48:48;;;;;;;;;24.00;23.00;;;;;9.62;90.37;100810.78;4956688;28;46354;-68
2022/11/12 00:51:13;;;;;;;;;24.00;21.00;;;;;9.62;90.38;100810.78;4967599;28;45534;-69
2022/11/12 00:53:39;;;;;;;;;33.67;30.00;;;;;9.61;90.35;100814.28;4950528;28;45433;-68
2022/11/12 00:56:06;;;;;;;;;27.00;24.00;;;;;9.60;90.54;100811.66;4956351;28;45523;-68
2022/11/12 00:58:33;;;;;;;;;28.33;23.33;;;;;9.59;90.47;100816.06;4956437;28;45437;-69
2022/11/12 01:01:15;;;;;;;;;30.67;25.00;;;;;9.58;90.64;100813.44;4953784;28;45335;-68
2022/11/12 01:03:41;;;;;;;;;25.67;23.33;;;;;9.56;90.60;100812.59;4953656;28;45438;-68
2022/11/12 01:06:15;;;;;;;;;23.33;20.67;;;;;9.57;90.74;100819.59;4951814;28;45482;-69
2022/11/12 01:08:41;;;;;;;;;27.67;24.67;;;;;9.54;90.73;100815.25;4950934;28;46244;-68
2022/11/12 01:11:14;;;;;;;;;24.33;23.00;;;;;9.53;90.72;100810.88;4950481;28;45608;-69
2022/11/12 01:13:41;;;;;;;;;27.00;21.00;;;;;9.53;90.96;100823.16;4948768;28;45477;-69
2022/11/12 01:16:09;;;;;;;;;24.33;23.67;;;;;9.52;90.92;100814.41;4951056;28;45566;-70
2022/11/12 01:18:34;;;;;;;;;23.00;22.00;;;;;9.52;90.70;100817.03;4955321;28;45486;-70
2022/11/12 01:21:02;;;;;;;;;30.67;22.67;;;;;9.51;90.79;100822.31;4943108;28;45470;-70
2022/11/12 01:23:27;;;;;;;;;25.00;23.33;;;;;9.50;90.92;100820.56;4956027;28;45459;-68
2022/11/12 01:25:53;;;;;;;;;26.33;21.67;;;;;9.49;90.73;100810.91;4953762;28;45621;-70
2022/11/12 01:28:18;;;;;;;;;22.67;22.67;;;;;9.46;90.99;100798.63;4956798;28;46506;-70
2022/11/12 01:30:44;;;;;;;;;26.67;25.33;;;;;9.45;91.03;100803.03;4959966;28;45445;-70
2022/11/12 01:33:09;;;;;;;;;23.33;22.67;;;;;9.43;90.97;100799.53;4964441;28;46050;-70
2022/11/12 01:35:34;;;;;;;;;21.00;20.67;;;;;9.43;91.12;100789.00;4952236;28;45401;-70
2022/11/12 01:38:00;;;;;;;;;24.00;22.00;;;;;9.44;91.03;100795.16;4952696;28;46659;-68
2022/11/12 01:40:25;;;;;;;;;27.33;23.67;;;;;9.43;91.03;100796.03;4955568;28;45395;-70
2022/11/12 01:42:52;;;;;;;;;25.67;23.00;;;;;9.41;91.14;100796.03;4954549;28;45752;-70
2022/11/12 01:45:17;;;;;;;;;23.67;22.67;;;;;9.41;90.99;100795.16;4957066;28;45586;-70
2022/11/12 01:47:48;;;;;;;;;22.67;22.67;;;;;9.39;91.09;100792.53;4955745;28;45468;-70
2022/11/12 01:50:21;;;;;;;;;20.00;19.00;;;;;9.37;90.96;100789.06;4953630;28;45564;-70
2022/11/12 01:53:03;;;;;;;;;18.00;17.00;;;;;9.36;91.18;100789.97;4948842;28;45486;-70
2022/11/12 01:55:33;;;;;;;;;22.67;20.67;;;;;9.35;91.33;100796.09;4942856;28;45470;-70
2022/11/12 01:58:14;;;;;;;;;25.33;22.67;;;;;9.34;91.20;100797.00;4948863;28;46549;-70
2022/11/12 02:00:40;;;;;;;;;27.00;25.00;;;;;9.33;91.37;100807.53;4956375;28;45426;-70
2022/11/12 02:03:12;;;;;;;;;27.67;25.67;;;;;9.31;91.18;100788.25;4959559;28;45536;-70
2022/11/12 02:05:39;;;;;;;;;31.00;23.67;;;;;9.30;91.23;100786.50;4952232;28;45520;-70
2022/11/12 02:08:06;;;;;;;;;26.67;23.00;;;;;9.28;91.25;100783.88;4953633;28;46015;-69
2022/11/12 02:10:33;;;;;;;;;26.00;24.33;;;;;9.27;91.40;100787.38;4951155;28;45512;-70
2022/11/12 02:15:42;;;;;;;;;25.33;22.33;;;;;9.23;91.30;100783.03;4952301;28;45400;-70
2022/11/12 02:18:08;;;;;;;;;19.00;19.00;;;;;9.23;91.53;100787.41;4950108;28;45719;-70
2022/11/12 02:20:35;;;;;;;;;22.67;21.67;;;;;9.21;91.41;100791.84;4957449;28;45446;-70
2022/11/12 02:23:02;;;;;;;;;27.00;23.00;;;;;9.21;91.55;100790.09;4954875;28;45510;-70
2022/11/12 02:25:27;;;;;;;;;18.67;18.33;;;;;9.19;91.30;100788.34;4947416;28;45453;-70
2022/11/12 02:27:55;;;;;;;;;21.67;19.33;;;;;9.16;91.63;100781.34;4953884;28;45648;-70
2022/11/12 02:30:34;;;;;;;;;20.67;20.67;;;;;9.15;91.87;100786.63;4950684;28;45476;-70
2022/11/12 02:32:59;;;;;;;;;29.00;23.00;;;;;9.16;91.76;100780.47;4953327;28;45511;-70
2022/11/12 02:35:25;;;;;;;;;24.00;22.67;;;;;9.14;91.98;100776.97;4969381;28;45594;-70
2022/11/12 02:37:50;;;;;;;;;25.00;22.00;;;;;9.13;91.57;100776.09;4946959;28;45505;-68
2022/11/12 02:40:15;;;;;;;;;28.00;23.00;;;;;9.13;91.44;100775.22;4954540;28;45522;-70
2022/11/12 02:42:41;;;;;;;;;24.67;21.00;;;;;9.08;91.11;100770.88;4954934;28;45529;-70
2022/11/12 02:45:07;;;;;;;;;24.67;23.00;;;;;9.05;91.19;100768.25;4954625;28;45467;-70
2022/11/12 02:47:32;;;;;;;;;22.00;19.67;;;;;9.02;90.95;100776.19;4954120;28;45489;-70
2022/11/12 02:49:57;;;;;;;;;24.00;22.00;;;;;9.00;91.15;100770.06;4952819;28;45382;-70
2022/11/12 02:52:23;;;;;;;;;21.33;21.33;;;;;8.97;91.12;100763.94;4952114;28;45453;-70
2022/11/12 02:54:48;;;;;;;;;23.33;21.67;;;;;8.94;91.08;100767.47;4969006;28;45573;-70
2022/11/12 02:57:13;;;;;;;;;21.33;19.33;;;;;8.91;91.52;100763.97;4952880;28;46195;-70
2022/11/12 02:59:39;;;;;;;;;23.33;20.67;;;;;8.87;91.09;100760.53;4949778;28;45446;-70
2022/11/12 03:02:04;;;;;;;;;21.67;21.67;;;;;8.85;91.27;100761.41;4948121;28;45347;-70
2022/11/12 03:04:30;;;;;;;;;25.00;21.00;;;;;8.82;91.34;100756.16;4947601;28;45379;-70
2022/11/12 03:06:55;;;;;;;;;26.33;22.00;;;;;8.78;91.39;100757.06;4952225;28;45527;-70
2022/11/12 03:09:20;;;;;;;;;23.00;19.00;;;;;8.75;91.49;100761.47;4945458;28;45367;-71
2022/11/12 03:11:46;;;;;;;;;22.00;20.33;;;;;8.75;91.69;100758.81;4952255;28;45624;-69
2022/11/12 03:14:11;;;;;;;;;27.00;23.00;;;;;8.71;91.74;100751.00;4949208;28;45391;-70
2022/11/12 03:16:36;;;;;;;;;20.33;20.33;;;;;8.70;91.77;100754.50;4950106;28;45458;-70
2022/11/12 03:19:02;;;;;;;;;22.33;21.67;;;;;8.68;91.87;100754.50;4951505;28;45486;-70
2022/11/12 03:21:27;;;;;;;;;24.00;21.67;;;;;8.67;91.99;100751.88;4952694;28;46056;-70
2022/11/12 03:23:52;;;;;;;;;20.33;19.00;;;;;8.65;91.78;100748.41;4948187;28;45407;-70
2022/11/12 03:26:18;;;;;;;;;24.00;19.67;;;;;8.61;91.85;100744.91;4950421;28;46100;-68
2022/11/12 03:28:43;;;;;;;;;22.00;21.33;;;;;8.59;91.69;100751.91;4949574;28;45562;-70
2022/11/12 03:31:10;;;;;;;;;25.00;22.67;;;;;8.57;92.12;100748.44;4952946;28;45418;-70
2022/11/12 03:33:36;;;;;;;;;25.33;21.00;;;;;8.54;92.32;100740.59;4947517;28;45438;-70
2022/11/12 03:36:03;;;;;;;;;21.67;21.00;;;;;8.55;92.31;100746.69;4954256;28;45429;-70
2022/11/12 03:38:28;;;;;;;;;23.33;19.67;;;;;8.55;92.40;100754.56;4949645;28;45545;-70
2022/11/12 03:40:53;;;;;;;;;17.67;17.67;;;;;8.55;92.51;100752.81;4953904;28;46060;-70
2022/11/12 03:43:19;;;;;;;;;23.00;21.67;;;;;8.56;92.83;100746.69;4943920;28;45537;-70
2022/11/12 03:45:44;;;;;;;;;19.00;18.00;;;;;8.56;92.39;100748.44;4954020;28;45434;-70
2022/11/12 03:48:10;;;;;;;;;20.00;18.00;;;;;8.56;92.32;100746.69;4949997;28;45643;-70
2022/11/12 03:50:35;;;;;;;;;22.00;17.67;;;;;8.57;92.57;100747.56;4943026;28;45940;-70
2022/11/12 03:53:00;;;;;;;;;25.67;23.67;;;;;8.59;92.58;100751.91;4953966;28;45345;-70
2022/11/12 03:55:28;;;;;;;;;22.00;19.00;;;;;8.61;92.38;100759.81;4946904;28;45442;-70
2022/11/12 03:57:56;;;;;;;;;18.33;17.00;;;;;8.62;92.56;100753.66;4951069;28;45505;-70
2022/11/12 04:00:23;;;;;;;;;22.33;20.33;;;;;8.64;92.41;100763.28;4949262;28;45546;-70
2022/11/12 04:02:49;;;;;;;;;19.33;19.33;;;;;8.64;92.54;100757.16;4958519;28;45469;-70
2022/11/12 04:10:49;;;;;;;;;22.33;19.67;;;;;8.65;91.87;100762.41;4953718;28;45557;-70
2022/11/12 04:13:27;;;;;;;;;23.33;17.00;;;;;8.65;92.23;100759.78;4949052;28;45542;-70
2022/11/12 04:21:51;;;;;;;;;22.67;21.67;;;;;8.65;92.07;100758.91;4952497;28;45700;-70
2022/11/12 04:27:02;;;;;;;;;16.00;11.00;;;;;8.64;91.99;100754.53;4954452;28;45773;-70
2022/11/12 04:32:12;;;;;;;;;19.33;17.33;;;;;8.62;92.00;100753.66;4955651;28;45442;-69
2022/11/12 04:34:37;;;;;;;;;22.00;17.33;;;;;8.60;91.79;100747.53;4968844;28;45611;-69
2022/11/12 04:37:04;;;;;;;;;16.00;16.00;;;;;8.60;91.87;100740.53;4951501;28;45515;-70
2022/11/12 04:39:29;;;;;;;;;20.00;18.67;;;;;8.58;92.15;100744.03;4956643;28;45479;-69
2022/11/12 04:47:23;;;;;;;;;24.33;23.33;;;;;8.52;91.84;100747.59;4954350;28;45450;-69
2022/11/12 04:49:48;;;;;;;;;18.33;16.33;;;;;8.50;91.82;100746.72;4943790;28;45529;-70
2022/11/12 04:52:14;;;;;;;;;21.00;18.67;;;;;8.48;91.97;100745.00;4956519;28;45432;-69
2022/11/12 04:54:39;;;;;;;;;18.33;18.00;;;;;8.45;91.88;100743.25;4951206;28;45561;-69
2022/11/12 04:57:05;;;;;;;;;24.67;20.67;;;;;8.43;91.73;100747.63;4954098;28;46498;-69
2022/11/12 04:59:30;;;;;;;;;23.33;19.00;;;;;8.42;91.80;100747.63;4956647;28;45439;-69
2022/11/12 05:01:56;;;;;;;;;18.00;18.00;;;;;8.38;91.84;100745.03;4953095;28;45391;-70
2022/11/12 05:04:21;;;;;;;;;20.33;19.33;;;;;8.37;91.98;100743.31;4952494;28;45423;-70
2022/11/12 05:06:50;;;;;;;;;22.67;20.00;;;;;8.36;91.94;100743.31;4950532;28;45952;-69
2022/11/12 05:09:16;;;;;;;;;18.00;18.00;;;;;8.35;91.93;100738.94;4956761;28;45552;-69
2022/11/12 05:11:41;;;;;;;;;24.00;20.67;;;;;8.35;91.97;100746.81;4953958;28;45431;-69
2022/11/12 05:14:06;;;;;;;;;18.33;18.33;;;;;8.33;91.94;100741.56;4956356;28;45453;-70
2022/11/12 05:16:32;;;;;;;;;19.00;16.33;;;;;8.32;91.73;100747.69;4955996;28;46546;-69
2022/11/12 05:18:57;;;;;;;;;20.67;19.33;;;;;8.31;91.83;100750.31;4951779;28;45394;-69
2022/11/12 05:24:07;;;;;;;;;19.67;16.33;;;;;8.28;91.98;100731.91;4955856;28;45499;-69
2022/11/12 05:26:33;;;;;;;;;25.00;18.33;;;;;8.29;92.14;100736.28;4970549;28;48469;-69
2022/11/12 05:28:58;;;;;;;;;11.33;10.67;;;;;8.30;91.89;100735.41;4949865;28;45493;-70
2022/11/12 05:31:23;;;;;;;;;22.00;16.00;;;;;8.30;92.10;100735.41;4947260;28;45888;-70
2022/11/12 05:33:49;;;;;;;;;19.67;18.00;;;;;8.30;92.12;100735.41;4952746;28;45471;-69
2022/11/12 05:36:14;;;;;;;;;19.00;18.33;;;;;8.30;91.81;100730.16;4961341;28;46392;-69
2022/11/12 05:38:39;;;;;;;;;17.00;16.67;;;;;8.28;91.65;100729.28;4947289;28;45443;-69
2022/11/12 05:41:05;;;;;;;;;18.67;18.67;;;;;8.27;91.67;100735.41;4955032;28;45364;-69
2022/11/12 05:43:30;;;;;;;;;18.33;16.00;;;;;8.26;91.58;100734.56;4950871;28;45517;-69
2022/11/12 05:45:55;;;;;;;;;20.00;16.67;;;;;8.26;91.77;100736.31;4955069;28;45497;-70
2022/11/12 05:48:21;;;;;;;;;17.00;17.00;;;;;8.25;91.45;100729.28;4943201;28;45476;-69
2022/11/12 05:50:53;;;;;;;;;21.00;18.67;;;;;8.21;91.44;100728.44;4956037;28;45373;-69
2022/11/12 05:53:18;;;;;;;;;16.33;13.00;;;;;8.18;91.81;100736.34;4955787;28;45593;-69
2022/11/12 05:55:44;;;;;;;;;16.67;16.00;;;;;8.16;91.74;100730.22;4949267;28;45740;-70
2022/11/12 05:58:09;;;;;;;;;19.00;15.67;;;;;8.15;92.14;100730.25;4951972;28;45360;-70
2022/11/12 06:00:37;;;;;;;;;18.67;16.67;;;;;8.15;92.22;100727.59;4955452;28;45435;-70
2022/11/12 06:03:11;;;;;;;;;18.67;16.00;;;;;8.15;92.61;100732.84;4947731;28;45424;-69
2022/11/12 06:05:37;;;;;;;;;17.33;17.33;;;;;8.14;92.07;100739.00;4954183;28;45515;-70
2022/11/12 06:08:04;;;;;;;;;15.67;13.67;;;;;8.13;92.01;100737.25;4947764;28;45366;-70
2022/11/12 06:10:30;;;;;;;;;16.67;16.67;;;;;8.13;92.08;100739.88;4954146;28;45572;-69
2022/11/12 06:12:56;;;;;;;;;16.33;14.00;;;;;8.12;91.75;100735.50;4944105;28;45513;-70
2022/11/12 06:15:23;;;;;;;;;22.67;18.00;;;;;8.13;91.90;100747.75;4953846;28;45892;-69
2022/11/12 06:17:49;;;;;;;;;20.33;17.00;;;;;8.12;91.67;100746.88;4954754;28;45423;-70
2022/11/12 06:20:14;;;;;;;;;20.67;19.00;;;;;8.12;91.70;100746.88;4952961;28;45518;-70
2022/11/12 06:22:39;;;;;;;;;17.67;16.33;;;;;8.11;91.61;100752.13;4952493;28;45435;-70
2022/11/12 06:25:05;;;;;;;;;21.33;21.33;;;;;8.09;91.64;100754.75;4948989;28;45412;-70
2022/11/12 06:27:31;;;;;;;;;24.67;19.33;;;;;8.08;91.68;100753.00;4952195;28;45351;-70
2022/11/12 06:29:56;;;;;;;;;20.67;18.00;;;;;8.06;91.97;100742.50;4947926;28;45353;-70
2022/11/12 06:32:22;;;;;;;;;21.00;19.00;;;;;8.06;91.73;100752.16;4953266;28;45493;-70
2022/11/12 06:34:49;;;;;;;;;23.33;20.67;;;;;8.06;91.81;100745.13;4953472;28;46752;-70
2022/11/12 06:37:14;;;;;;;;;21.00;16.33;;;;;8.06;91.85;100749.50;4954751;28;45488;-70
2022/11/12 06:39:40;;;;;;;;;26.00;21.00;;;;;8.07;91.75;100751.25;4954103;28;45528;-64
2022/11/12 06:42:05;;;;;;;;;19.00;17.67;;;;;8.10;91.69;100751.25;4957426;28;45523;-61
2022/11/12 06:44:30;;;;;;;;;22.33;21.33;;;;;8.14;91.03;100754.75;4951286;28;45610;-69
2022/11/12 06:46:56;;;;;;;;;19.33;18.33;;;;;8.17;91.29;100750.38;4951367;28;45445;-69
2022/11/12 06:49:21;;;;;;;;;17.00;16.33;;;;;8.18;91.09;100756.50;4955116;28;45750;-69
2022/11/12 06:51:50;;;;;;;;;19.33;18.67;;;;;8.19;91.00;100755.63;4954384;28;45556;-68
2022/11/12 06:54:15;;;;;;;;;21.33;18.67;;;;;8.21;90.88;100759.97;4947460;28;46192;-69
2022/11/12 06:56:41;;;;;;;;;19.67;16.33;;;;;8.22;90.74;100764.34;4953440;28;45435;-69
2022/11/12 06:59:06;;;;;;;;;20.33;17.33;;;;;8.24;90.60;100762.56;4952349;28;45894;-70
2022/11/12 07:01:32;;;;;;;;;19.00;18.67;;;;;8.27;90.41;100757.31;4950480;28;45491;-69
2022/11/12 07:03:57;;;;;;;;;27.67;23.67;;;;;8.28;90.42;100758.19;4954989;28;46446;-69
2022/11/12 07:06:23;;;;;;;;;17.67;16.33;;;;;8.30;90.13;100765.19;4955779;28;45453;-70
2022/11/12 07:08:49;;;;;;;;;18.33;18.33;;;;;8.31;90.17;100766.94;4957948;28;46037;-70
2022/11/12 07:11:16;;;;;;;;;23.00;18.67;;;;;8.33;89.75;100764.34;4954857;28;45441;-70
2022/11/12 07:13:43;;;;;;;;;17.33;14.00;;;;;8.31;89.55;100764.31;4953492;28;45504;-69
2022/11/12 07:16:12;;;;;;;;;17.67;17.33;;;;;8.31;89.20;100768.69;4953931;28;45433;-69
2022/11/12 07:18:38;;;;;;;;;19.33;18.33;;;;;8.28;89.48;100774.81;4952852;28;45495;-69
2022/11/12 07:21:09;;;;;;;;;28.67;18.67;;;;;8.29;89.42;100768.69;4952417;28;45652;-69
2022/11/12 07:23:36;;;;;;;;;16.67;16.00;;;;;8.29;89.43;100773.06;4962993;28;46086;-69
2022/11/12 07:26:26;;;;;;;;;18.33;17.33;;;;;8.29;89.45;100773.06;4957016;28;45477;-69
2022/11/12 07:28:55;;;;;;;;;17.33;17.33;;;;;8.30;89.67;100775.69;4951079;28;45521;-70
2022/11/12 07:31:21;;;;;;;;;19.00;17.33;;;;;8.34;89.48;100779.22;4960810;28;45620;-69
2022/11/12 07:33:48;;;;;;;;;21.00;19.33;;;;;8.36;89.52;100775.72;4954085;28;46357;-69
2022/11/12 07:36:16;;;;;;;;;21.00;20.00;;;;;8.38;89.34;100775.69;4954280;28;45363;-69
2022/11/12 07:38:43;;;;;;;;;28.00;25.00;;;;;8.40;89.18;100766.03;4946576;28;45482;-69
2022/11/12 07:41:10;;;;;;;;;21.00;20.00;;;;;8.42;89.18;100777.41;4958694;28;45597;-70
2022/11/12 07:43:37;;;;;;;;;26.33;21.33;;;;;8.45;89.14;100782.66;4953972;28;47269;-69
2022/11/12 07:46:17;;;;;;;;;26.33;22.33;;;;;8.49;88.89;100780.91;4960078;28;45391;-69
2022/11/12 07:48:43;;;;;;;;;18.00;17.00;;;;;8.52;88.80;100784.41;4960788;28;45444;-69
2022/11/12 07:51:16;;;;;;;;;21.33;19.67;;;;;8.54;88.75;100782.63;4954963;28;45587;-69
2022/11/12 07:53:42;;;;;;;;;24.67;21.67;;;;;8.56;88.62;100780.84;4942917;28;46228;-69
2022/11/12 07:56:10;;;;;;;;;18.67;16.67;;;;;8.59;88.41;100782.59;4960906;28;45537;-69
2022/11/12 07:58:36;;;;;;;;;24.33;21.00;;;;;8.61;88.46;100789.59;4963849;28;45496;-69
2022/11/12 08:01:07;;;;;;;;;22.33;20.00;;;;;8.66;88.34;100782.56;4957076;28;45468;-69
2022/11/12 08:03:33;;;;;;;;;21.00;20.00;;;;;8.68;88.05;100780.81;4950425;28;45470;-67
2022/11/12 08:06:00;;;;;;;;;19.00;18.33;;;;;8.73;88.20;100783.38;4964674;28;45421;-69
2022/11/12 08:08:25;;;;;;;;;21.67;18.00;;;;;8.79;88.05;100788.63;4962082;28;45431;-69
2022/11/12 08:10:57;;;;;;;;;18.33;17.00;;;;;8.85;87.94;100791.22;4952407;28;45732;-70
2022/11/12 08:13:23;;;;;;;;;21.33;20.33;;;;;8.90;87.37;100786.78;4947932;28;46435;-69
2022/11/12 08:15:49;;;;;;;;;19.67;19.67;;;;;8.98;87.49;100781.47;4958391;28;45805;-70
2022/11/12 08:18:15;;;;;;;;;24.00;22.33;;;;;9.02;87.16;100773.56;4959768;28;45480;-69
2022/11/12 08:20:41;;;;;;;;;17.33;17.00;;;;;9.06;87.20;100780.53;4959539;28;45382;-69
2022/11/12 08:23:07;;;;;;;;;15.67;14.00;;;;;9.12;86.67;100778.75;4959032;28;45378;-69
2022/11/12 08:25:33;;;;;;;;;15.33;14.00;;;;;9.15;86.80;100776.97;4956721;28;45475;-70
2022/11/12 08:27:59;;;;;;;;;14.00;13.33;;;;;9.19;86.53;100781.34;4951605;28;45360;-69
2022/11/12 08:30:26;;;;;;;;;19.00;19.00;;;;;9.24;86.44;100779.50;4954409;28;45558;-69
2022/11/12 08:32:59;;;;;;;;;18.00;17.33;;;;;9.30;86.35;100779.47;4954360;28;45579;-69
2022/11/12 08:35:25;;;;;;;;;22.00;17.67;;;;;9.34;85.92;100777.69;4958618;28;45602;-69
2022/11/12 08:37:56;;;;;;;;;21.33;17.67;;;;;9.37;85.81;100772.41;4974672;28;45751;-69
2022/11/12 08:40:21;;;;;;;;;21.00;19.00;;;;;9.38;85.70;100777.63;4948905;28;45761;-70
2022/11/12 08:42:46;;;;;;;;;16.33;16.33;;;;;9.41;85.66;100776.72;4958726;28;45372;-69
2022/11/12 08:45:12;;;;;;;;;22.00;20.00;;;;;9.49;85.59;100776.69;4958434;28;45379;-69
2022/11/12 08:47:37;;;;;;;;;17.33;15.00;;;;;9.54;85.67;100775.75;4957048;28;45467;-69
2022/11/12 08:50:03;;;;;;;;;15.67;15.00;;;;;9.60;85.27;100780.06;4958108;28;45454;-69
2022/11/12 08:52:28;;;;;;;;;20.00;18.33;;;;;9.63;84.76;100775.66;4945664;28;47325;-69
2022/11/12 08:54:53;;;;;;;;;18.67;16.00;;;;;9.66;84.79;100773.00;4947129;28;45385;-69
2022/11/12 08:57:19;;;;;;;;;18.33;18.33;;;;;9.71;84.99;100772.97;4954662;28;45383;-69
2022/11/12 08:59:44;;;;;;;;;21.33;17.00;;;;;9.75;84.45;100765.00;4954371;28;45530;-70
2022/11/12 09:02:12;;;;;;;;;20.00;19.33;;;;;9.79;84.16;100771.97;4954729;28;45939;-69
2022/11/12 09:04:38;;;;;;;;;19.33;16.00;;;;;9.82;84.14;100768.44;4951965;28;45426;-69
2022/11/12 09:07:03;;;;;;;;;26.67;25.00;;;;;9.87;84.02;100769.28;4950282;28;45557;-69
2022/11/12 09:09:28;;;;;;;;;23.00;23.00;;;;;9.93;83.60;100773.59;4954528;28;45422;-68
2022/11/12 09:11:54;;;;;;;;;22.67;21.00;;;;;9.95;83.58;100763.91;4958867;28;46716;-69
2022/11/12 09:14:19;;;;;;;;;25.33;24.00;;;;;9.99;83.54;100760.34;4955267;28;45402;-70
2022/11/12 09:16:45;;;;;;;;;23.00;21.00;;;;;10.02;83.53;100763.84;4953597;28;45744;-69
2022/11/12 09:19:10;;;;;;;;;25.00;24.00;;;;;10.07;83.07;100767.28;4953539;28;45550;-70
2022/11/12 09:21:35;;;;;;;;;25.33;25.00;;;;;10.12;83.32;100770.72;4952321;28;45631;-69
2022/11/12 09:24:02;;;;;;;;;26.33;24.33;;;;;10.18;83.40;100766.28;4953007;28;45391;-69
2022/11/12 09:26:27;;;;;;;;;25.67;25.00;;;;;10.25;83.06;100768.84;4948269;28;45394;-69
2022/11/12 09:28:53;;;;;;;;;27.00;26.00;;;;;10.31;83.01;100774.06;4947343;28;45534;-69
2022/11/12 09:31:19;;;;;;;;;26.67;22.67;;;;;10.36;82.77;100769.59;4946427;28;45550;-69
2022/11/12 09:33:44;;;;;;;;;29.00;25.33;;;;;10.43;82.54;100773.00;4954237;28;45561;-69
2022/11/12 09:36:10;;;;;;;;;29.33;29.00;;;;;10.51;82.56;100765.88;4961329;28;45450;-70
2022/11/12 09:38:35;;;;;;;;;31.67;29.67;;;;;10.58;82.48;100764.03;4951459;28;45545;-69
2022/11/12 09:41:18;;;;;;;;;30.67;30.67;;;;;10.62;82.18;100752.53;4955485;28;45461;-69
2022/11/12 09:43:50;;;;;;;;;27.67;27.67;;;;;10.65;82.16;100763.94;4955271;28;45338;-69
2022/11/12 09:46:34;;;;;;;;;23.67;22.67;;;;;10.68;82.27;100757.75;4969383;28;45377;-69
2022/11/12 09:49:13;;;;;;;;;26.67;24.00;;;;;10.74;82.15;100749.72;4954191;28;45523;-69
2022/11/12 09:52:02;;;;;;;;;21.67;21.67;;;;;10.79;81.76;100747.91;4951519;28;45499;-69
2022/11/12 09:54:31;;;;;;;;;23.33;22.33;;;;;10.87;81.95;100753.06;4945085;28;45675;-69
2022/11/12 09:56:57;;;;;;;;;27.00;26.33;;;;;10.94;81.86;100747.66;4948787;28;45363;-68
2022/11/12 09:59:27;;;;;;;;;21.00;21.00;;;;;11.00;81.58;100742.31;4954768;28;45427;-69
2022/11/12 10:02:01;;;;;;;;;24.67;22.67;;;;;11.06;81.29;100730.78;4944263;28;48086;-69
2022/11/12 10:04:36;;;;;;;;;24.00;21.00;;;;;11.12;81.47;100733.31;4950706;28;45471;-69
2022/11/12 10:07:13;;;;;;;;;26.33;24.67;;;;;11.21;81.10;100740.22;4954870;28;45537;-69
2022/11/12 10:10:01;;;;;;;;;27.00;26.00;;;;;11.28;80.80;100732.16;4944963;28;45486;-68
2022/11/12 10:12:59;;;;;;;;;29.67;25.33;;;;;11.37;80.71;100737.28;4954635;28;45595;-69
2022/11/12 10:18:43;;;;;;;;;32.00;29.00;;;;;11.53;80.52;100708.81;4947772;28;45545;-70
2022/11/12 10:21:14;;;;;;;;;28.00;26.33;;;;;11.60;80.24;100712.19;4944920;28;45507;-69
2022/11/12 10:23:44;;;;;;;;;32.00;27.00;;;;;11.66;80.10;100704.19;4949378;28;45442;-69
2022/11/12 10:26:15;;;;;;;;;25.67;25.67;;;;;11.71;80.00;100704.97;4953134;28;45502;-69
2022/11/12 10:29:09;;;;;;;;;29.00;26.67;;;;;11.79;79.78;100697.78;4944317;28;45494;-69
2022/11/12 10:31:35;;;;;;;;;29.67;26.33;;;;;11.83;80.01;100695.06;4945034;28;45622;-67
2022/11/12 10:34:13;;;;;;;;;28.00;26.00;;;;;11.90;79.62;100690.50;4949896;28;45400;-69
2022/11/12 10:36:47;;;;;;;;;28.67;23.67;;;;;11.94;79.59;100678.09;4951255;28;45608;-67
2022/11/12 10:39:36;;;;;;;;;28.00;25.00;;;;;11.98;79.30;100670.09;4951464;28;45378;-68
2022/11/12 10:42:14;;;;;;;;;29.67;27.00;;;;;12.03;79.41;100670.88;4952613;28;45429;-68
2022/11/12 10:44:42;;;;;;;;;25.33;25.33;;;;;12.11;79.34;100674.19;4954091;28;46192;-68
2022/11/12 10:47:41;;;;;;;;;25.00;23.00;;;;;12.19;79.17;100664.34;4944867;28;45544;-68
2022/11/12 10:50:09;;;;;;;;;29.67;26.67;;;;;12.28;78.77;100652.69;4941886;28;45437;-68
2022/11/12 10:52:36;;;;;;;;;26.67;26.33;;;;;12.37;78.16;100664.84;4951779;28;45617;-67
2022/11/12 10:55:24;;;;;;;;;25.33;24.00;;;;;12.44;78.12;100664.63;4949670;28;45568;-67
2022/11/12 10:58:19;;;;;;;;;26.00;23.33;;;;;12.56;77.91;100655.56;4949383;28;45494;-68
2022/11/12 11:00:55;;;;;;;;;23.33;21.33;;;;;12.63;77.49;100649.22;4942944;28;45414;-68
2022/11/12 11:03:36;;;;;;;;;32.00;26.33;;;;;12.68;77.28;100636.75;4946397;28;45339;-68
2022/11/12 11:06:24;;;;;;;;;24.67;22.33;;;;;12.75;77.05;100634.81;4946941;28;45548;-68
2022/11/12 11:08:51;;;;;;;;;30.00;26.33;;;;;12.80;77.17;100627.63;4939435;28;45435;-68
2022/11/12 11:11:30;;;;;;;;;21.00;20.33;;;;;12.88;76.86;100625.66;4946217;28;45382;-68
2022/11/12 11:14:17;;;;;;;;;31.00;28.33;;;;;12.95;76.84;100621.94;4934397;28;45439;-68
2022/11/12 11:17:07;;;;;;;;;24.33;22.00;;;;;13.03;76.47;100617.34;4933917;28;46263;-67
2022/11/12 11:19:40;;;;;;;;;34.33;31.33;;;;;13.11;76.26;100614.47;4934176;28;45419;-69
2022/11/12 11:22:27;;;;;;;;;23.67;22.00;;;;;13.18;75.89;100605.50;4950331;28;45390;-69
2022/11/12 11:25:19;;;;;;;;;27.67;27.00;;;;;13.25;75.12;100607.91;4939427;28;45390;-69
2022/11/12 11:28:15;;;;;;;;;26.00;24.33;;;;;13.30;74.49;100601.63;4933728;28;45521;-69
2022/11/12 11:30:55;;;;;;;;;15.33;14.67;;;;;13.37;74.82;100592.63;4934535;28;45586;-69
2022/11/12 11:33:35;;;;;;;;;28.33;26.00;;;;;13.42;74.51;100588.03;4934042;28;45578;-69
2022/11/12 11:36:30;;;;;;;;;26.00;26.00;;;;;13.46;74.10;100585.25;4933897;28;45371;-69
2022/11/12 11:39:06;;;;;;;;;25.33;25.33;;;;;13.51;73.82;100580.72;4932031;28;45556;-67
2022/11/12 11:42:10;;;;;;;;;32.33;28.67;;;;;13.56;73.81;100581.47;4934195;28;45417;-69
2022/11/12 11:45:01;;;;;;;;;28.00;23.67;;;;;13.63;73.62;100571.53;4943999;28;45493;-70
2022/11/12 11:47:52;;;;;;;;;33.33;29.67;;;;;13.73;73.26;100565.06;4939157;28;45459;-68
2022/11/12 11:50:26;;;;;;;;;32.67;28.00;;;;;13.79;73.23;100562.22;4941370;28;46897;-68
2022/11/12 11:53:21;;;;;;;;;28.67;26.33;;;;;13.85;72.93;100555.88;4949440;28;45493;-68